Nearby METAR Reports

 

EGKB - Biggin Hill, United Kingdom
Distance from station: S 5mi, 8km
Updated: 16/04/2014 20:50
NOT Current
Clear
Clear
 Wind from S
Wind: S 3 mph , 6 km/h
Temperature: 9°C
Dew Point: -1°C
Humidity: 50%
Barometer: 1025 hPa
Summary: Clear
Visibility: greater than 7 miles , 10 km
2014/04/16 19:50 EGKB 161950Z 17003KT CAVOK 09/M01 Q1025
EGLC - London City Airp, United Kingdom
Distance from station: NNE 8mi, 13km
Updated: 16/04/2014 22:50
Clear
Clear
 Wind from ESE
Wind: ESE 5 mph , 7 km/h
Temperature: 10°C
Wind Chill: 9°C
Dew Point: 2°C
Humidity: 58%
Barometer: 1025 hPa
Clouds: Clear
Visibility: 6 miles , 10 km
2014/04/16 21:50 EGLC 162150Z AUTO 12004KT 9999 NCD 10/02 Q1025
 
EGKK - London/Gatwick A, United Kingdom
Distance from station: SSW 19mi, 31km
Updated: 16/04/2014 22:50
Clear
Clear
 Wind from varies
Wind: varies 2 mph , 4 km/h
Temperature: 6°C
Dew Point: 1°C
Humidity: 71%
Barometer: 1024 hPa
Summary: Clear
Visibility: greater than 7 miles , 10 km
2014/04/16 21:50 EGKK 162150Z VRB02KT CAVOK 06/01 Q1024
EGLL - London/Heathrow, United Kingdom
Distance from station: WNW 21mi, 33km
Updated: 16/04/2014 22:50
Clear
Clear
 Wind from SSE
Wind: SSE 6 mph , 9 km/h
Temperature: 9°C
Wind Chill: 7°C
Dew Point: 1°C
Humidity: 58%
Barometer: 1024 hPa
Summary: Clear
Visibility: greater than 7 miles , 10 km
2014/04/16 21:50 EGLL 162150Z 16005KT CAVOK 09/01 Q1024